Winchester, VA (22602)

2:01 PM EDT on August 24, 2016 (GMT -0400)
| | Change Station

Elev -9999 ft 0.00 °N, 0.00 °E | Updated

Partly Cloudy
Partly Cloudy
86 °F
Feels Like 87 °F
N
8
Wind Variable Wind from SSE
Gusts mph

Today
High -- | Low -- °F
--% Chance of Precip.
Yesterday
High -- | Low -- °F
Precip. -- in
Pressure 30.24 in
Visibility 10.0 miles
Clouds Scattered Clouds 3700 ft
Heat Index 87 °F
Dew Point 64 °F
Humidity 48%
Rainfall --
Snow Depth Not available.
6:34 AM 7:54 PM
Waning Gibbous, 55% visible
METAR KOKV 241755Z AUTO 13007KT 10SM SCT037 29/20 A3024 RMK AO2
Pressure 30.24 in
Visibility 10.0 miles
Clouds Scattered Clouds 3700 ft
Heat Index 87 °F
Dew Point 64 °F
Humidity 48%
Rainfall --
Snow Depth Not available.
6:34 AM 7:54 PM
Waning Gibbous, 55% visible
METAR KOKV 241755Z AUTO 13007KT 10SM SCT037 29/20 A3024 RMK AO2

10-Day Weather Forecast

Almanac

Astronomy

Aug. 24, 2016 Rise Set
Actual Time
Civil Twilight
Nautical Twilight
Astronomical Twilight
Moon
Length of Visible Light
Length of Day
Tomorrow will be .
, % of the Moon is Illuminated

Today's Extremes

State Highs State Lows

Community

WunderPhotos

Upload Photos

1,934,662 photos uploaded!

WunderBlog® & News

Nearby

Air Quality

  Air Quality AQ Index Pollutant
Not available.

Snow Depth

Station Depth Elevation

Earthquake Activity

City Distance Mag. Time & Date
Minimum magnitude displayed is 2.5.

Coastal Water Temperatures

Place Temperature

Stations

Nearby Weather Stations

Station Location Temp. Windchill Dew Point Humidity Wind Precip. Elev Updated Type
                   

Watches & Warnings

There are currently no watches in effect.